Time;durP1;ratioP1;P1;durP2;ratioP2;P2;SDS_P1;SDS_P2;PMS_P1;PMS_P2;Temp;Humidity;BMP_temperature;BMP_pressure;BME280_temperature;BME280_humidity;BME280_pressure;Samples;Min_cycle;Max_cycle;Signal;HPM_P1;HPM_P2
2022/09/29 00:00:54;;;;;;;;;;;6.60;99.90;;;;;;5055876;28;19928;-78
2022/09/29 00:03:22;;;;;;;;;;;6.60;99.90;;;;;;5049848;28;19932;-79
2022/09/29 00:05:51;;;;;;;;;;;6.60;99.90;;;;;;5056981;28;19952;-76
2022/09/29 00:08:19;;;;;;;;;;;6.60;99.90;;;;;;5332766;22;19981;-79
2022/09/29 00:10:46;;;;;;;;;;;6.60;99.90;;;;;;5073126;28;19928;-83
2022/09/29 00:13:13;;;;;;;;;;;6.60;99.90;;;;;;5091025;28;19916;-80
2022/09/29 00:15:40;;;;;;;;;;;6.60;99.90;;;;;;5071183;28;19924;-80
2022/09/29 00:18:07;;;;;;;;;;;6.50;99.90;;;;;;5053523;28;20399;-80
2022/09/29 00:20:34;;;;;;;;;;;6.50;99.90;;;;;;5054531;28;19936;-80
2022/09/29 00:23:03;;;;;;;;;;;6.60;99.90;;;;;;5072503;28;19932;-80
2022/09/29 00:25:30;;;;;;;;;;;6.60;99.90;;;;;;5071644;28;20520;-80
2022/09/29 00:27:57;;;;;;;;;;;6.60;99.90;;;;;;5058200;28;19978;-79
2022/09/29 00:30:24;;;;;;;;;;;6.60;99.90;;;;;;5065631;28;19924;-80
2022/09/29 00:32:50;;;;;;;;;;;6.60;99.90;;;;;;5092331;28;19932;-80
2022/09/29 00:35:17;;;;;;;;;;;6.60;99.90;;;;;;5090536;28;20449;-80
2022/09/29 00:37:44;;;;;;;;;;;6.60;99.90;;;;;;5090066;28;20003;-80
2022/09/29 00:40:13;;;;;;;;;;;6.60;99.90;;;;;;5073093;28;19928;-78
2022/09/29 00:42:39;;;;;;;;;;;6.60;99.90;;;;;;5092111;28;19947;-80
2022/09/29 00:45:14;;;;;;;;;;;6.60;99.90;;;;;;5085662;28;19924;-80
2022/09/29 00:47:43;;;;;;;;;;;6.60;99.90;;;;;;5067659;28;19932;-80
2022/09/29 00:50:13;;;;;;;;;;;6.60;99.90;;;;;;5073414;28;20553;-79
2022/09/29 00:52:41;;;;;;;;;;;6.60;99.90;;;;;;5073846;28;20444;-79
2022/09/29 00:55:10;;;;;;;;;;;6.70;99.90;;;;;;5073649;28;20566;-78
2022/09/29 00:57:42;;;;;;;;;;;6.70;99.90;;;;;;5072353;28;19928;-80
2022/09/29 01:00:12;;;;;;;;;;;6.60;99.90;;;;;;5070256;28;20362;-80
2022/09/29 01:02:41;;;;;;;;;;;6.60;99.90;;;;;;5067440;28;19931;-81
2022/09/29 01:05:11;;;;;;;;;;;6.50;99.90;;;;;;5092493;28;19924;-80
2022/09/29 01:07:39;;;;;;;;;;;6.50;99.90;;;;;;5061839;28;19930;-79
2022/09/29 01:10:07;;;;;;;;;;;6.50;99.90;;;;;;5054613;28;19935;-80
2022/09/29 01:12:35;;;;;;;;;;;6.50;99.90;;;;;;5055639;28;19925;-81
2022/09/29 01:15:04;;;;;;;;;;;6.40;99.90;;;;;;5073010;28;19928;-81
2022/09/29 01:17:30;;;;;;;;;;;6.40;99.90;;;;;;5055007;28;20528;-80
2022/09/29 01:20:02;;;;;;;;;;;6.40;99.90;;;;;;5072426;28;19939;-78
2022/09/29 01:22:40;;;;;;;;;;;6.50;99.90;;;;;;5050661;28;19974;-79
2022/09/29 01:25:20;;;;;;;;;;;6.50;99.90;;;;;;5056348;28;19929;-79
2022/09/29 01:28:09;;;;;;;;;;;6.50;99.90;;;;;;5055075;28;19924;-79
2022/09/29 01:30:46;;;;;;;;;;;6.50;99.90;;;;;;5053944;28;19932;-81
2022/09/29 01:33:19;;;;;;;;;;;6.50;99.90;;;;;;5072955;28;19924;-81
2022/09/29 01:35:49;;;;;;;;;;;6.40;99.90;;;;;;5076393;28;19924;-81
2022/09/29 01:38:21;;;;;;;;;;;6.40;99.90;;;;;;5075686;28;20346;-80
2022/09/29 01:40:50;;;;;;;;;;;6.40;99.90;;;;;;5056257;28;19932;-81
2022/09/29 01:43:18;;;;;;;;;;;6.40;99.90;;;;;;5074401;28;20028;-82
2022/09/29 01:45:49;;;;;;;;;;;6.40;99.90;;;;;;5072182;28;19924;-82
2022/09/29 01:48:18;;;;;;;;;;;6.40;99.90;;;;;;5064173;28;19989;-81
2022/09/29 01:50:46;;;;;;;;;;;6.40;99.90;;;;;;5092765;28;20410;-81
2022/09/29 01:53:15;;;;;;;;;;;6.30;99.90;;;;;;5074032;28;19963;-81
2022/09/29 01:55:43;;;;;;;;;;;6.30;99.90;;;;;;5070508;28;20521;-81
2022/09/29 01:58:11;;;;;;;;;;;6.30;99.90;;;;;;5072849;28;19974;-80
2022/09/29 02:00:40;;;;;;;;;;;6.30;99.90;;;;;;5068520;28;19928;-80
2022/09/29 02:03:11;;;;;;;;;;;6.30;99.90;;;;;;5062272;28;19932;-80
2022/09/29 02:05:39;;;;;;;;;;;6.30;99.90;;;;;;5059834;28;19928;-81
2022/09/29 02:08:10;;;;;;;;;;;6.30;99.90;;;;;;5060083;28;19939;-81
2022/09/29 02:10:39;;;;;;;;;;;6.30;99.90;;;;;;5065272;28;19928;-81
2022/09/29 02:13:07;;;;;;;;;;;6.20;99.90;;;;;;5079784;28;19935;-79
2022/09/29 02:15:35;;;;;;;;;;;6.20;99.90;;;;;;5072104;28;20448;-78
2022/09/29 02:18:06;;;;;;;;;;;6.20;99.90;;;;;;5073145;28;20010;-79
2022/09/29 02:20:35;;;;;;;;;;;6.10;99.90;;;;;;5080839;28;19974;-79
2022/09/29 02:23:02;;;;;;;;;;;6.10;99.90;;;;;;5080708;28;20010;-78
2022/09/29 02:25:29;;;;;;;;;;;6.10;99.90;;;;;;5094181;28;19935;-78
2022/09/29 02:27:55;;;;;;;;;;;6.00;99.90;;;;;;5095335;28;19924;-79
2022/09/29 02:30:22;;;;;;;;;;;6.00;99.90;;;;;;5075209;28;19936;-79
2022/09/29 02:32:49;;;;;;;;;;;5.90;99.90;;;;;;5071040;28;19928;-80
2022/09/29 02:35:16;;;;;;;;;;;5.90;99.90;;;;;;5081101;28;19943;-80
2022/09/29 02:38:01;;;;;;;;;;;5.90;99.90;;;;;;5097546;28;20292;-79
2022/09/29 02:40:38;;;;;;;;;;;5.90;99.90;;;;;;5094510;28;19924;-80
2022/09/29 02:43:14;;;;;;;;;;;5.90;99.90;;;;;;5080445;28;19928;-79
2022/09/29 02:45:46;;;;;;;;;;;5.90;99.90;;;;;;5074847;28;19932;-79
2022/09/29 02:48:23;;;;;;;;;;;5.90;99.90;;;;;;5069308;28;20014;-80
2022/09/29 02:50:56;;;;;;;;;;;5.90;99.90;;;;;;5061467;28;20387;-80
2022/09/29 02:53:30;;;;;;;;;;;6.00;99.90;;;;;;5075371;28;19928;-80
2022/09/29 02:55:59;;;;;;;;;;;6.00;99.90;;;;;;5058322;28;19935;-80
2022/09/29 02:58:29;;;;;;;;;;;6.10;99.90;;;;;;5065013;28;19924;-80
2022/09/29 03:00:57;;;;;;;;;;;6.10;99.90;;;;;;5065895;28;19931;-81
2022/09/29 03:03:24;;;;;;;;;;;6.10;99.90;;;;;;5071576;28;20440;-80
2022/09/29 03:05:51;;;;;;;;;;;6.10;99.90;;;;;;5078625;28;20546;-80
2022/09/29 03:08:18;;;;;;;;;;;6.10;99.90;;;;;;5096425;28;19944;-80
2022/09/29 03:10:46;;;;;;;;;;;6.10;99.90;;;;;;5077834;28;19981;-79
2022/09/29 03:13:13;;;;;;;;;;;6.10;99.90;;;;;;5074244;28;19931;-78
2022/09/29 03:15:39;;;;;;;;;;;6.10;99.90;;;;;;5070226;28;19932;-78
2022/09/29 03:18:07;;;;;;;;;;;6.10;99.90;;;;;;5063478;28;19924;-78
2022/09/29 03:20:34;;;;;;;;;;;6.10;99.90;;;;;;5057508;28;20017;-79
2022/09/29 03:23:00;;;;;;;;;;;6.10;99.90;;;;;;5058010;28;19925;-79
2022/09/29 03:25:27;;;;;;;;;;;6.10;99.90;;;;;;5056882;28;19936;-79
2022/09/29 03:27:56;;;;;;;;;;;6.10;99.90;;;;;;5066287;28;20302;-79
2022/09/29 03:30:22;;;;;;;;;;;6.10;99.90;;;;;;5063818;28;19959;-79
2022/09/29 03:32:50;;;;;;;;;;;6.10;99.90;;;;;;5071316;28;20239;-79
2022/09/29 03:35:16;;;;;;;;;;;6.10;99.90;;;;;;5077975;28;19924;-80
2022/09/29 03:37:44;;;;;;;;;;;6.10;99.90;;;;;;5075669;28;19924;-78
2022/09/29 03:40:11;;;;;;;;;;;6.10;99.90;;;;;;5075906;28;19982;-78
2022/09/29 03:42:38;;;;;;;;;;;6.10;99.90;;;;;;5075983;28;19932;-79
2022/09/29 03:45:07;;;;;;;;;;;6.10;99.90;;;;;;5087142;28;19928;-79
2022/09/29 03:47:34;;;;;;;;;;;6.10;99.90;;;;;;5069146;28;19985;-80
2022/09/29 03:50:00;;;;;;;;;;;6.10;99.90;;;;;;5068847;28;19934;-81
2022/09/29 03:52:27;;;;;;;;;;;6.00;99.90;;;;;;5057706;28;20291;-81
2022/09/29 03:54:54;;;;;;;;;;;6.00;99.90;;;;;;5057142;28;19962;-81
2022/09/29 03:57:21;;;;;;;;;;;5.90;99.90;;;;;;5059810;28;19928;-81
2022/09/29 03:59:48;;;;;;;;;;;5.90;99.90;;;;;;5080760;28;19928;-82
2022/09/29 04:02:18;;;;;;;;;;;5.80;99.90;;;;;;5079491;28;20558;-81
2022/09/29 04:04:45;;;;;;;;;;;5.80;99.90;;;;;;5075003;28;19924;-79
2022/09/29 04:07:12;;;;;;;;;;;5.70;99.90;;;;;;5095810;28;20074;-79
2022/09/29 04:09:39;;;;;;;;;;;5.70;99.90;;;;;;5077799;28;19928;-80
2022/09/29 04:12:05;;;;;;;;;;;5.70;99.90;;;;;;5096819;28;19928;-79
2022/09/29 04:14:32;;;;;;;;;;;5.70;99.90;;;;;;5074842;28;19939;-82
2022/09/29 04:16:59;;;;;;;;;;;5.70;99.90;;;;;;5065048;28;20453;-79
2022/09/29 04:19:27;;;;;;;;;;;5.70;99.90;;;;;;5077346;28;19978;-79
2022/09/29 04:21:54;;;;;;;;;;;5.60;99.90;;;;;;5077417;28;20055;-79
2022/09/29 04:24:21;;;;;;;;;;;5.60;99.90;;;;;;5078529;28;19971;-78
2022/09/29 04:26:48;;;;;;;;;;;5.50;99.90;;;;;;5055402;28;20384;-78
2022/09/29 04:29:15;;;;;;;;;;;5.50;99.90;;;;;;5063856;28;20445;-78
2022/09/29 04:31:42;;;;;;;;;;;5.50;99.90;;;;;;5088308;28;19936;-79
2022/09/29 04:34:11;;;;;;;;;;;5.50;99.90;;;;;;5095631;28;19928;-79
2022/09/29 04:36:40;;;;;;;;;;;5.50;99.90;;;;;;5095340;28;19977;-80
2022/09/29 04:39:07;;;;;;;;;;;5.50;99.90;;;;;;5075301;28;19973;-80
2022/09/29 04:41:35;;;;;;;;;;;5.50;99.90;;;;;;5068529;28;19932;-81
2022/09/29 04:44:02;;;;;;;;;;;5.50;99.90;;;;;;5071086;28;19986;-82
2022/09/29 04:46:29;;;;;;;;;;;5.50;99.90;;;;;;5067200;28;19996;-81
2022/09/29 04:48:56;;;;;;;;;;;5.50;99.90;;;;;;5057859;28;19928;-80
2022/09/29 04:51:23;;;;;;;;;;;5.50;99.90;;;;;;5068200;28;19932;-80
2022/09/29 04:53:52;;;;;;;;;;;5.50;99.90;;;;;;5076149;28;19931;-82
2022/09/29 04:56:19;;;;;;;;;;;5.50;99.90;;;;;;5073450;28;20005;-81
2022/09/29 04:58:46;;;;;;;;;;;5.40;99.90;;;;;;5088477;28;19928;-82
2022/09/29 05:01:13;;;;;;;;;;;5.40;99.90;;;;;;5058637;28;20268;-82
2022/09/29 05:03:40;;;;;;;;;;;5.50;99.90;;;;;;5067142;28;20019;-82
2022/09/29 05:06:07;;;;;;;;;;;5.50;99.90;;;;;;5094408;28;19924;-82
2022/09/29 05:08:34;;;;;;;;;;;5.50;99.90;;;;;;5074032;28;19925;-80
2022/09/29 05:11:04;;;;;;;;;;;5.50;99.90;;;;;;5061241;28;20647;-81
2022/09/29 05:13:31;;;;;;;;;;;5.50;99.90;;;;;;5068310;28;19928;-81
2022/09/29 05:16:01;;;;;;;;;;;5.60;99.90;;;;;;5068503;28;19927;-83
2022/09/29 05:18:29;;;;;;;;;;;5.60;99.90;;;;;;5067495;28;20059;-83
2022/09/29 05:20:56;;;;;;;;;;;5.60;99.90;;;;;;5097491;28;19923;-84
2022/09/29 05:23:23;;;;;;;;;;;5.50;99.90;;;;;;5081219;28;19928;-83
2022/09/29 05:25:50;;;;;;;;;;;5.50;99.90;;;;;;5080787;28;20016;-83
2022/09/29 05:28:18;;;;;;;;;;;5.40;99.90;;;;;;5077547;28;19934;-85
2022/09/29 05:30:45;;;;;;;;;;;5.50;99.90;;;;;;5072738;28;19927;-84
2022/09/29 05:33:12;;;;;;;;;;;5.40;99.90;;;;;;5078252;28;20592;-82
2022/09/29 05:35:39;;;;;;;;;;;5.40;99.90;;;;;;5081536;28;19923;-82
2022/09/29 05:38:06;;;;;;;;;;;5.50;99.90;;;;;;5100801;28;20460;-83
2022/09/29 05:40:33;;;;;;;;;;;5.40;99.90;;;;;;5061803;28;20340;-84
2022/09/29 05:43:00;;;;;;;;;;;5.40;99.90;;;;;;5076878;28;19928;-81
2022/09/29 05:45:28;;;;;;;;;;;5.50;99.90;;;;;;5074227;28;19951;-80
2022/09/29 05:47:55;;;;;;;;;;;5.50;99.90;;;;;;5074486;28;19921;-82
2022/09/29 05:50:22;;;;;;;;;;;5.50;99.90;;;;;;5074991;28;19924;-81
2022/09/29 05:52:51;;;;;;;;;;;5.50;99.90;;;;;;5077001;28;20367;-80
2022/09/29 05:55:18;;;;;;;;;;;5.50;99.90;;;;;;5057743;28;20501;-81
2022/09/29 05:57:47;;;;;;;;;;;5.50;99.90;;;;;;5059802;28;19936;-81
2022/09/29 06:00:15;;;;;;;;;;;5.60;99.90;;;;;;5076373;28;19924;-81
2022/09/29 06:02:43;;;;;;;;;;;5.60;99.90;;;;;;5072849;28;19931;-82
2022/09/29 06:05:10;;;;;;;;;;;5.70;99.90;;;;;;5065329;28;19928;-81
2022/09/29 06:07:36;;;;;;;;;;;5.70;99.90;;;;;;5062065;28;19940;-84
2022/09/29 06:10:04;;;;;;;;;;;5.90;99.90;;;;;;5063495;28;19947;-81
2022/09/29 06:12:33;;;;;;;;;;;5.90;99.90;;;;;;5080281;28;19921;-84
2022/09/29 06:15:00;;;;;;;;;;;6.00;99.90;;;;;;5061494;28;19920;-81
2022/09/29 06:17:28;;;;;;;;;;;6.20;99.90;;;;;;5078756;28;19924;-81
2022/09/29 06:19:57;;;;;;;;;;;6.70;99.90;;;;;;5062726;28;19928;-81
2022/09/29 06:22:24;;;;;;;;;;;8.10;99.90;;;;;;5085573;28;20593;-80
2022/09/29 06:24:51;;;;;;;;;;;8.20;99.90;;;;;;5070490;28;19939;-82
2022/09/29 06:27:18;;;;;;;;;;;8.90;99.90;;;;;;5090763;28;20014;-82
2022/09/29 06:29:45;;;;;;;;;;;9.60;99.90;;;;;;5075581;28;19931;-83
2022/09/29 06:32:12;;;;;;;;;;;10.30;99.90;;;;;;5061714;28;19942;-81
2022/09/29 06:37:33;;;;;;;;;;;10.80;99.90;;;;;;5061443;28;20298;-83
2022/09/29 06:37:38;;;;;;;;;;;11.50;99.90;;;;;;5079420;28;19920;-84
2022/09/29 06:40:07;;;;;;;;;;;12.10;99.90;;;;;;5077085;28;20028;-88
2022/09/29 06:42:35;;;;;;;;;;;12.50;99.90;;;;;;5068238;28;19956;-85
2022/09/29 06:45:02;;;;;;;;;;;13.00;99.90;;;;;;5072822;28;19926;-85
2022/09/29 06:47:29;;;;;;;;;;;13.40;99.90;;;;;;5071113;28;19924;-83
2022/09/29 06:49:58;;;;;;;;;;;13.80;99.90;;;;;;5078724;28;19919;-84
2022/09/29 06:52:25;;;;;;;;;;;14.20;99.90;;;;;;5078588;28;20022;-85
2022/09/29 06:54:53;;;;;;;;;;;14.60;99.90;;;;;;5072237;28;19921;-85
2022/09/29 06:57:20;;;;;;;;;;;15.00;99.90;;;;;;5079429;28;19936;-84
2022/09/29 06:59:47;;;;;;;;;;;15.30;99.90;;;;;;5086393;28;19920;-83
2022/09/29 07:02:14;;;;;;;;;;;15.60;99.90;;;;;;5070525;28;19942;-83
2022/09/29 07:04:41;;;;;;;;;;;15.90;99.90;;;;;;5092051;28;19962;-84
2022/09/29 07:07:09;;;;;;;;;;;16.10;99.90;;;;;;5098366;28;20322;-83
2022/09/29 07:09:36;;;;;;;;;;;16.30;99.90;;;;;;5079226;28;19945;-81
2022/09/29 07:12:07;;;;;;;;;;;16.50;99.90;;;;;;5080371;28;19969;-80
2022/09/29 07:14:34;;;;;;;;;;;16.70;99.90;;;;;;5078912;28;19927;-81
2022/09/29 07:17:01;;;;;;;;;;;16.80;99.90;;;;;;5079096;28;19931;-81
2022/09/29 07:19:28;;;;;;;;;;;17.00;99.90;;;;;;5097441;28;19924;-81
2022/09/29 07:21:55;;;;;;;;;;;17.10;99.90;;;;;;5079402;28;19927;-81
2022/09/29 07:24:22;;;;;;;;;;;17.20;99.90;;;;;;5078397;28;19930;-81
2022/09/29 07:26:49;;;;;;;;;;;17.30;99.90;;;;;;5087890;28;19978;-81
2022/09/29 07:29:17;;;;;;;;;;;17.50;99.90;;;;;;5075501;28;19924;-82
2022/09/29 07:31:45;;;;;;;;;;;17.70;99.90;;;;;;5074709;28;19931;-81
2022/09/29 07:34:12;;;;;;;;;;;17.80;99.90;;;;;;5088569;28;19976;-81
2022/09/29 07:36:39;;;;;;;;;;;17.80;99.90;;;;;;5084349;28;19966;-81
2022/09/29 07:39:06;;;;;;;;;;;17.80;99.90;;;;;;5060856;28;19974;-81
2022/09/29 07:41:33;;;;;;;;;;;17.80;99.90;;;;;;5060839;28;19928;-81
2022/09/29 07:44:00;;;;;;;;;;;17.90;99.90;;;;;;5060957;28;19924;-81
2022/09/29 07:46:28;;;;;;;;;;;18.00;99.90;;;;;;5061585;28;19920;-81
2022/09/29 07:48:55;;;;;;;;;;;17.90;99.90;;;;;;5080262;28;19920;-82
2022/09/29 07:51:22;;;;;;;;;;;18.00;99.90;;;;;;5063382;28;19924;-81
2022/09/29 07:53:48;;;;;;;;;;;18.10;99.90;;;;;;5080328;28;19931;-82
2022/09/29 07:56:17;;;;;;;;;;;18.10;99.90;;;;;;5062901;28;19934;-80
2022/09/29 07:58:44;;;;;;;;;;;18.30;99.90;;;;;;5094961;28;19928;-80
2022/09/29 08:01:12;;;;;;;;;;;18.40;99.90;;;;;;5093698;28;19936;-80
2022/09/29 08:03:41;;;;;;;;;;;18.50;99.90;;;;;;5062928;28;19928;-81
2022/09/29 08:06:08;;;;;;;;;;;18.50;99.90;;;;;;5060721;28;19974;-81
2022/09/29 08:08:36;;;;;;;;;;;18.50;99.90;;;;;;5061126;28;19920;-81
2022/09/29 08:11:04;;;;;;;;;;;18.50;99.90;;;;;;5068554;28;19924;-80
2022/09/29 08:13:31;;;;;;;;;;;18.40;99.90;;;;;;5080144;28;19920;-81
2022/09/29 08:15:59;;;;;;;;;;;18.30;99.90;;;;;;5080353;28;19931;-81
2022/09/29 08:18:26;;;;;;;;;;;18.20;99.90;;;;;;5081521;28;19955;-81
2022/09/29 08:20:54;;;;;;;;;;;18.20;99.90;;;;;;5080680;28;20014;-80
2022/09/29 08:23:22;;;;;;;;;;;18.10;99.90;;;;;;5100949;28;20371;-81
2022/09/29 08:25:48;;;;;;;;;;;18.10;99.90;;;;;;5082696;28;19923;-81
2022/09/29 08:28:15;;;;;;;;;;;18.00;99.90;;;;;;5099709;28;20021;-81
2022/09/29 08:30:42;;;;;;;;;;;18.00;99.90;;;;;;5069261;28;19932;-81
2022/09/29 08:33:13;;;;;;;;;;;18.00;99.90;;;;;;5062529;28;19943;-80
2022/09/29 08:35:40;;;;;;;;;;;18.00;99.90;;;;;;5081777;28;20264;-81
2022/09/29 08:38:08;;;;;;;;;;;18.10;99.90;;;;;;5079960;28;19977;-81
2022/09/29 08:40:35;;;;;;;;;;;18.10;99.90;;;;;;5061288;28;20236;-82
2022/09/29 08:43:09;;;;;;;;;;;18.10;99.90;;;;;;5081154;28;19931;-82
2022/09/29 08:45:38;;;;;;;;;;;18.20;99.90;;;;;;5065129;28;19920;-81
2022/09/29 08:48:09;;;;;;;;;;;18.10;99.90;;;;;;5099696;28;19950;-82
2022/09/29 08:50:37;;;;;;;;;;;18.00;99.90;;;;;;5100331;28;19920;-82
2022/09/29 08:53:06;;;;;;;;;;;18.00;99.90;;;;;;5113092;28;20192;-81
2022/09/29 08:55:39;;;;;;;;;;;18.00;99.90;;;;;;5098880;28;19924;-81
2022/09/29 08:58:09;;;;;;;;;;;18.00;99.90;;;;;;5084927;28;19971;-82
2022/09/29 09:00:40;;;;;;;;;;;17.90;99.90;;;;;;5095115;28;20297;-82
2022/09/29 09:03:12;;;;;;;;;;;17.80;99.90;;;;;;5079476;28;19924;-81
2022/09/29 09:05:53;;;;;;;;;;;17.80;99.90;;;;;;5071398;28;19924;-82
2022/09/29 09:08:25;;;;;;;;;;;17.70;99.90;;;;;;5092571;28;19924;-82
2022/09/29 09:11:01;;;;;;;;;;;17.30;99.90;;;;;;5606952;22;20398;-81
2022/09/29 09:13:41;;;;;;;;;;;17.20;99.90;;;;;;5091970;28;20023;-82
2022/09/29 09:16:16;;;;;;;;;;;16.80;99.90;;;;;;5094926;28;19920;-83
2022/09/29 09:18:54;;;;;;;;;;;16.30;99.90;;;;;;5094989;28;19928;-81
2022/09/29 09:21:27;;;;;;;;;;;15.50;99.90;;;;;;5073177;28;19974;-81
2022/09/29 09:23:55;;;;;;;;;;;15.50;99.90;;;;;;5073186;28;19921;-80
2022/09/29 09:26:30;;;;;;;;;;;15.20;99.90;;;;;;5065149;28;19921;-81
2022/09/29 09:29:00;;;;;;;;;;;13.30;99.90;;;;;;5070973;28;19928;-80
2022/09/29 09:31:33;;;;;;;;;;;14.70;99.90;;;;;;5071995;28;19932;-81
2022/09/29 09:34:01;;;;;;;;;;;14.60;99.90;;;;;;5070874;28;19935;-81
2022/09/29 09:36:31;;;;;;;;;;;14.50;99.90;;;;;;5055419;28;20414;-80
2022/09/29 09:38:59;;;;;;;;;;;14.30;99.90;;;;;;5070749;28;20293;-81
2022/09/29 09:41:29;;;;;;;;;;;14.30;99.90;;;;;;5054910;28;20015;-80
2022/09/29 09:43:58;;;;;;;;;;;14.40;99.90;;;;;;5053608;28;20388;-81
2022/09/29 09:46:30;;;;;;;;;;;14.40;99.90;;;;;;5071348;28;20392;-81
2022/09/29 09:49:00;;;;;;;;;;;14.50;99.90;;;;;;5074574;28;19920;-81
2022/09/29 09:51:37;;;;;;;;;;;14.50;99.90;;;;;;5076067;28;19935;-81
2022/09/29 09:54:06;;;;;;;;;;;14.60;99.90;;;;;;5075178;28;19924;-82
2022/09/29 09:56:41;;;;;;;;;;;14.70;99.90;;;;;;5034572;28;20439;-81
2022/09/29 09:59:12;;;;;;;;;;;14.80;99.90;;;;;;5049862;28;19925;-82
2022/09/29 10:01:40;;;;;;;;;;;14.90;99.90;;;;;;5033960;28;19933;-82
2022/09/29 10:04:09;;;;;;;;;;;15.00;99.90;;;;;;5034507;28;20389;-81
2022/09/29 10:06:36;;;;;;;;;;;15.10;99.90;;;;;;5041211;28;19936;-82
2022/09/29 10:09:03;;;;;;;;;;;15.10;99.90;;;;;;5074887;28;20320;-82
2022/09/29 10:11:31;;;;;;;;;;;15.20;99.90;;;;;;5050908;28;19929;-82
2022/09/29 10:14:01;;;;;;;;;;;15.20;99.90;;;;;;5034506;28;19929;-82
2022/09/29 10:16:33;;;;;;;;;;;15.30;99.90;;;;;;5035376;28;19929;-82
2022/09/29 10:19:00;;;;;;;;;;;17.40;99.90;;;;;;5035305;28;19936;-81
2022/09/29 10:21:35;;;;;;;;;;;15.60;99.90;;;;;;5034608;28;19921;-81
2022/09/29 10:24:05;;;;;;;;;;;15.80;99.90;;;;;;5055373;28;19924;-81
2022/09/29 10:26:34;;;;;;;;;;;16.00;99.90;;;;;;5057927;28;19924;-83
2022/09/29 10:29:04;;;;;;;;;;;16.50;99.90;;;;;;5059527;28;19927;-80
2022/09/29 10:31:32;;;;;;;;;;;15.20;99.90;;;;;;5058274;28;19931;-82
2022/09/29 10:34:01;;;;;;;;;;;16.70;99.90;;;;;;5057183;28;19921;-81
2022/09/29 10:36:29;;;;;;;;;;;16.80;99.90;;;;;;5073308;28;19920;-83
2022/09/29 10:38:57;;;;;;;;;;;17.10;99.90;;;;;;5072976;28;19925;-81
2022/09/29 10:41:24;;;;;;;;;;;17.10;99.90;;;;;;5070548;28;19960;-80
2022/09/29 10:43:52;;;;;;;;;;;17.30;99.90;;;;;;5052834;28;19922;-82
2022/09/29 10:46:38;;;;;;;;;;;17.40;99.90;;;;;;5075934;28;19920;-83
2022/09/29 10:49:08;;;;;;;;;;;17.50;99.90;;;;;;5078145;28;20329;-81
2022/09/29 10:51:35;;;;;;;;;;;17.50;99.90;;;;;;5049886;28;19925;-82
2022/09/29 10:54:07;;;;;;;;;;;17.70;99.90;;;;;;5044318;28;20018;-82
2022/09/29 10:56:34;;;;;;;;;;;17.90;99.90;;;;;;5056054;28;19974;-80
2022/09/29 10:59:02;;;;;;;;;;;18.70;99.90;;;;;;5037527;28;19971;-82
2022/09/29 11:01:30;;;;;;;;;;;18.70;99.90;;;;;;5067174;28;19928;-81
2022/09/29 11:04:02;;;;;;;;;;;19.00;99.90;;;;;;5056456;28;19931;-82
2022/09/29 11:06:29;;;;;;;;;;;19.40;99.90;;;;;;5057004;28;19929;-80
2022/09/29 11:08:58;;;;;;;;;;;19.80;99.90;;;;;;5055879;28;19982;-80
2022/09/29 11:11:26;;;;;;;;;;;20.10;99.90;;;;;;5061217;28;20558;-82
2022/09/29 11:13:53;;;;;;;;;;;20.30;99.90;;;;;;5058833;28;20300;-82
2022/09/29 11:16:24;;;;;;;;;;;20.70;99.90;;;;;;5047150;28;19925;-83
2022/09/29 11:18:52;;;;;;;;;;;20.90;99.90;;;;;;5050294;28;19924;-83
2022/09/29 11:21:34;;;;;;;;;;;21.10;99.90;;;;;;5055731;28;19929;-83
2022/09/29 11:24:05;;;;;;;;;;;21.30;99.90;;;;;;5050312;28;19924;-83
2022/09/29 11:26:35;;;;;;;;;;;21.50;99.90;;;;;;5074432;28;20419;-82
2022/09/29 11:29:16;;;;;;;;;;;21.80;99.90;;;;;;5057832;28;19927;-82
2022/09/29 11:31:49;;;;;;;;;;;21.90;99.90;;;;;;5062362;28;19935;-82
2022/09/29 11:34:32;;;;;;;;;;;22.10;99.90;;;;;;5077580;28;19940;-81
2022/09/29 11:37:05;;;;;;;;;;;22.20;99.90;;;;;;5078527;28;19931;-83
2022/09/29 11:39:38;;;;;;;;;;;22.40;99.90;;;;;;5077960;28;19974;-81
2022/09/29 11:42:23;;;;;;;;;;;22.40;99.90;;;;;;5060834;28;19915;-82
2022/09/29 11:44:57;;;;;;;;;;;22.60;99.90;;;;;;5055452;28;19985;-84
2022/09/29 11:47:32;;;;;;;;;;;22.50;99.90;;;;;;5046993;28;19924;-84
2022/09/29 11:50:09;;;;;;;;;;;22.10;99.90;;;;;;5039077;28;19920;-83
2022/09/29 11:52:47;;;;;;;;;;;21.70;99.90;;;;;;5046781;28;19927;-83
2022/09/29 11:55:28;;;;;;;;;;;21.60;99.90;;;;;;5059672;28;19940;-83
2022/09/29 11:58:02;;;;;;;;;;;21.60;99.90;;;;;;5066030;28;20020;-83
2022/09/29 12:00:42;;;;;;;;;;;21.90;99.90;;;;;;5078970;28;19929;-82
2022/09/29 12:03:16;;;;;;;;;;;22.00;99.90;;;;;;5061817;28;19929;-84
2022/09/29 12:06:22;;;;;;;;;;;22.10;99.90;;;;;;5079414;28;19971;-83
2022/09/29 12:08:55;;;;;;;;;;;22.20;99.90;;;;;;5061595;28;19928;-84
2022/09/29 12:11:33;;;;;;;;;;;22.30;99.90;;;;;;5050030;28;19925;-83
2022/09/29 12:14:03;;;;;;;;;;;22.40;99.90;;;;;;5058713;28;20464;-83
2022/09/29 12:16:32;;;;;;;;;;;22.50;99.90;;;;;;5056346;28;19975;-84
2022/09/29 12:21:29;;;;;;;;;;;22.40;99.90;;;;;;5091542;28;19931;-76
2022/09/29 12:23:56;;;;;;;;;;;22.50;99.90;;;;;;5094563;28;19992;-77
2022/09/29 12:26:24;;;;;;;;;;;22.60;99.90;;;;;;5089440;28;19920;-77
2022/09/29 12:28:54;;;;;;;;;;;22.70;99.90;;;;;;5088347;28;19977;-78
2022/09/29 12:31:23;;;;;;;;;;;22.80;99.90;;;;;;5090900;28;19928;-76
2022/09/29 12:33:51;;;;;;;;;;;22.90;99.90;;;;;;5109414;28;19919;-75
2022/09/29 12:36:49;;;;;;;;;;;23.00;99.90;;;;;;5109114;28;19923;-76
2022/09/29 12:39:35;;;;;;;;;;;23.00;99.90;;;;;;5109524;28;20265;-76
2022/09/29 12:42:08;;;;;;;;;;;23.10;99.90;;;;;;5109061;28;20032;-76
2022/09/29 12:44:40;;;;;;;;;;;23.10;99.90;;;;;;5108012;28;19920;-76
2022/09/29 12:47:09;;;;;;;;;;;23.10;99.90;;;;;;5105234;28;19930;-77
2022/09/29 12:49:39;;;;;;;;;;;23.20;99.90;;;;;;5091884;28;19923;-76
2022/09/29 12:52:11;;;;;;;;;;;23.20;99.90;;;;;;5109016;28;20457;-76
2022/09/29 12:54:40;;;;;;;;;;;23.10;99.90;;;;;;5109775;28;19936;-76
2022/09/29 12:57:10;;;;;;;;;;;22.80;99.90;;;;;;5109406;28;19923;-76
2022/09/29 12:59:40;;;;;;;;;;;22.60;99.90;;;;;;5101833;28;20326;-77
2022/09/29 13:02:33;;;;;;;;;;;22.30;99.90;;;;;;5507063;22;19924;-75
2022/09/29 13:05:15;;;;;;;;;;;22.20;99.90;;;;;;5067956;28;20138;-76
2022/09/29 13:07:50;;;;;;;;;;;22.00;99.90;;;;;;5069028;28;19924;-77
2022/09/29 13:10:31;;;;;;;;;;;21.70;99.90;;;;;;5063919;28;20439;-76
2022/09/29 13:13:10;;;;;;;;;;;21.40;99.90;;;;;;5044143;28;19925;-76
2022/09/29 13:15:45;;;;;;;;;;;21.20;99.90;;;;;;5050530;28;19936;-77
2022/09/29 13:18:20;;;;;;;;;;;20.90;99.90;;;;;;5049591;28;20313;-78
2022/09/29 13:20:55;;;;;;;;;;;20.70;99.90;;;;;;5050426;28;20023;-77
2022/09/29 13:23:31;;;;;;;;;;;20.50;99.90;;;;;;5050136;28;19925;-77
2022/09/29 13:26:06;;;;;;;;;;;20.30;99.90;;;;;;5051583;28;20456;-76
2022/09/29 13:28:34;;;;;;;;;;;20.10;99.90;;;;;;5048921;28;19924;-76
2022/09/29 13:31:04;;;;;;;;;;;19.90;99.90;;;;;;5050527;28;19933;-76
2022/09/29 13:33:31;;;;;;;;;;;19.70;99.90;;;;;;5048550;28;20110;-76
2022/09/29 13:35:58;;;;;;;;;;;19.50;99.90;;;;;;5072096;28;20001;-76
2022/09/29 13:38:26;;;;;;;;;;;19.30;99.90;;;;;;5058565;28;20023;-76
2022/09/29 13:41:15;;;;;;;;;;;19.10;99.90;;;;;;5050687;28;20263;-76
2022/09/29 13:44:01;;;;;;;;;;;19.00;99.90;;;;;;5049293;28;19925;-76
2022/09/29 13:46:36;;;;;;;;;;;19.00;99.90;;;;;;5048981;28;19975;-76
2022/09/29 13:49:04;;;;;;;;;;;18.90;99.90;;;;;;5047717;28;19929;-77
2022/09/29 13:51:51;;;;;;;;;;;18.80;99.90;;;;;;5051110;28;20106;-76
2022/09/29 13:54:34;;;;;;;;;;;18.70;99.90;;;;;;5049785;28;20378;-77
2022/09/29 13:57:28;;;;;;;;;;;18.60;99.90;;;;;;5052051;28;19952;-76
2022/09/29 14:00:22;;;;;;;;;;;18.50;99.90;;;;;;5048337;28;19934;-77
2022/09/29 14:03:00;;;;;;;;;;;18.50;99.90;;;;;;5054919;28;19936;-77
2022/09/29 14:05:43;;;;;;;;;;;19.40;99.90;;;;;;5062732;28;19928;-78
2022/09/29 14:08:13;;;;;;;;;;;18.40;99.90;;;;;;5046100;28;19952;-77
2022/09/29 14:10:42;;;;;;;;;;;18.40;99.90;;;;;;5060799;28;19933;-77
2022/09/29 14:13:13;;;;;;;;;;;18.60;99.90;;;;;;5055543;28;20163;-77
2022/09/29 14:15:43;;;;;;;;;;;18.70;99.90;;;;;;5060639;28;19928;-77
2022/09/29 14:18:16;;;;;;;;;;;19.00;99.90;;;;;;5053346;28;19928;-77
2022/09/29 14:20:57;;;;;;;;;;;19.40;99.90;;;;;;5052380;28;19991;-76
2022/09/29 14:23:38;;;;;;;;;;;19.70;99.90;;;;;;5052891;28;19975;-78
2022/09/29 14:26:05;;;;;;;;;;;19.90;99.90;;;;;;5053446;28;19933;-77
2022/09/29 14:28:38;;;;;;;;;;;20.10;99.90;;;;;;5053171;28;19994;-77
2022/09/29 14:31:19;;;;;;;;;;;20.20;99.90;;;;;;5054414;28;19936;-78
2022/09/29 14:33:51;;;;;;;;;;;20.20;99.90;;;;;;5041526;28;20002;-77
2022/09/29 14:36:19;;;;;;;;;;;20.00;99.90;;;;;;5052591;28;19929;-78
2022/09/29 14:38:47;;;;;;;;;;;19.80;99.90;;;;;;5052913;28;20352;-78
2022/09/29 14:41:30;;;;;;;;;;;19.70;99.90;;;;;;5053293;28;19928;-78
2022/09/29 14:43:59;;;;;;;;;;;19.60;99.90;;;;;;5053509;28;19939;-78